Butler, Oklahoma
Current Conditions -  °F | °C
As of 5:15 PM on Wednesday 17 Dec 2014 (Local Time) from KCLK Reporting Station
Haze Haze  
Wind Chill: 31°   Ceiling: 400
Heat Index: 36°   Visibility: 2.5mi
Dew Point: 34°   Wind: 6mph
Humidity: 93%   Direction: 130°SE
Pressure: 30.1"   Gusts: NA
Location:  35.64°N, 99.19°W
Report Text: KCLK 172315Z AUTO 13005KT 2 1/2SM BR OVC004 02/01 A3010 RMK AO2 LTG DSNT NE
Loading
Personal Weather Stations






























Interactive Weather Map New forecast layout! Learn more

10-Day Weather Forecast

Advertisements
Track Severe Weather on mobile